Time;durP1;ratioP1;P1;durP2;ratioP2;P2;SDS_P1;SDS_P2;PMS_P1;PMS_P2;Temp;Humidity;BMP_temperature;BMP_pressure;BME280_temperature;BME280_humidity;BME280_pressure;Samples;Min_cycle;Max_cycle;Signal;HPM_P1;HPM_P2
2022/12/23 00:00:35;;;;;;;;;4.00;2.00;;;;;10.52;86.82;98585.81;5034092;28;8859;-59
2022/12/23 00:03:04;;;;;;;;;1.00;1.00;;;;;10.53;86.84;98584.81;5033309;28;8832;-59
2022/12/23 00:05:32;;;;;;;;;1.00;1.00;;;;;10.53;86.89;98587.47;5033470;28;8841;-59
2022/12/23 00:08:04;;;;;;;;;1.50;1.50;;;;;10.54;87.33;98581.16;5034182;28;8929;-56
2022/12/23 00:10:32;;;;;;;;;1.50;1.00;;;;;10.56;87.11;98584.47;5034671;28;8837;-57
2022/12/23 00:15:45;;;;;;;;;0.00;0.00;;;;;10.57;86.75;98588.84;5035539;28;8836;-59
2022/12/23 00:18:13;;;;;;;;;1.00;1.00;;;;;10.58;86.24;98593.16;5035598;28;8918;-59
2022/12/23 00:20:40;;;;;;;;;1.00;1.00;;;;;10.59;86.20;98596.66;5035554;28;8837;-59
2022/12/23 00:23:09;;;;;;;;;2.75;1.00;;;;;10.58;86.50;98595.84;5034836;28;8813;-59
2022/12/23 00:25:43;;;;;;;;;2.00;1.00;;;;;10.60;86.82;98595.66;5035774;28;8895;-59
2022/12/23 00:28:12;;;;;;;;;3.25;3.25;;;;;10.61;86.95;98589.38;5034645;28;8927;-59
2022/12/23 00:30:39;;;;;;;;;3.00;3.00;;;;;10.61;86.52;98589.38;5035722;28;8825;-59
2022/12/23 00:33:07;;;;;;;;;3.50;2.75;;;;;10.62;86.39;98594.50;5035541;28;8841;-58
2022/12/23 00:35:35;;;;;;;;;1.00;1.00;;;;;10.62;86.43;98591.03;5034360;28;8836;-59
2022/12/23 00:38:02;;;;;;;;;2.00;2.00;;;;;10.61;86.58;98595.50;5034135;28;8828;-59
2022/12/23 00:43:16;;;;;;;;;1.00;1.00;;;;;10.62;86.14;98591.84;5034580;28;8863;-58
2022/12/23 00:45:44;;;;;;;;;1.00;1.00;;;;;10.63;86.74;98593.53;5035076;28;8867;-59
2022/12/23 00:50:57;;;;;;;;;2.50;1.00;;;;;10.63;86.35;98588.19;5035404;28;8851;-57
2022/12/23 00:53:25;;;;;;;;;2.00;1.00;;;;;10.63;86.89;98598.84;5035450;28;8825;-59
2022/12/23 00:55:53;;;;;;;;;3.00;3.00;;;;;10.65;86.64;98599.53;5035435;28;8824;-59
2022/12/23 00:58:21;;;;;;;;;3.50;3.25;;;;;10.65;86.60;98599.53;5034724;28;8817;-58
2022/12/23 01:06:19;;;;;;;;;3.00;1.50;;;;;10.68;86.41;98593.91;5034947;28;8863;-59
2022/12/23 01:08:47;;;;;;;;;4.50;4.25;;;;;10.70;86.70;98588.44;5036858;28;8828;-58
2022/12/23 01:11:14;;;;;;;;;2.00;2.00;;;;;10.70;86.76;98589.25;5038666;28;8837;-59
2022/12/23 01:13:43;;;;;;;;;6.00;5.50;;;;;10.72;86.42;98591.75;5038814;28;8821;-59
2022/12/23 01:16:11;;;;;;;;;2.00;2.00;;;;;10.72;86.42;98597.09;5038585;28;8852;-59
2022/12/23 01:18:44;;;;;;;;;4.00;3.50;;;;;10.72;86.21;98595.28;5038030;28;8921;-58
2022/12/23 01:21:11;;;;;;;;;3.00;3.00;;;;;10.72;86.54;98608.59;5038710;28;8840;-59
2022/12/23 01:23:39;;;;;;;;;3.25;3.00;;;;;10.72;86.79;98613.91;5037958;28;8859;-58
2022/12/23 01:26:08;;;;;;;;;3.00;3.00;;;;;10.72;86.96;98611.25;5038132;28;8975;-57
2022/12/23 01:28:36;;;;;;;;;3.50;1.50;;;;;10.71;87.03;98604.22;5038044;28;8813;-59
2022/12/23 01:31:03;;;;;;;;;4.00;3.50;;;;;10.69;86.68;98608.88;5038504;28;9498;-59
2022/12/23 01:33:31;;;;;;;;;4.00;3.25;;;;;10.66;86.27;98609.19;5038610;28;8829;-58
2022/12/23 01:35:58;;;;;;;;;3.00;3.00;;;;;10.64;86.42;98611.19;5038005;28;8975;-59
2022/12/23 01:38:27;;;;;;;;;3.00;3.00;;;;;10.62;86.94;98618.47;5037813;28;8920;-58
2022/12/23 01:40:54;;;;;;;;;3.75;3.00;;;;;10.55;86.58;98617.41;5038450;28;8854;-59
2022/12/23 01:43:21;;;;;;;;;4.00;3.00;;;;;10.49;86.77;98620.72;5038053;28;8851;-58
2022/12/23 01:45:49;;;;;;;;;3.50;3.00;;;;;10.45;86.92;98622.00;5037846;28;8856;-59
2022/12/23 01:48:17;;;;;;;;;3.00;3.00;;;;;10.43;87.19;98631.13;5037953;28;8994;-58
2022/12/23 01:50:45;;;;;;;;;3.00;2.00;;;;;10.41;86.98;98625.13;5038166;28;8825;-59
2022/12/23 01:53:13;;;;;;;;;4.00;3.00;;;;;10.38;87.42;98628.91;5038196;28;8828;-59
2022/12/23 01:55:40;;;;;;;;;3.00;1.00;;;;;10.37;87.31;98629.06;5038182;28;8852;-57
2022/12/23 01:58:08;;;;;;;;;3.75;3.75;;;;;10.35;87.68;98625.72;5037797;28;8836;-57
2022/12/23 02:11:37;;;;;;;;;5.50;3.75;;;;;10.30;87.27;98642.16;5037033;28;8817;-57
2022/12/23 02:16:51;;;;;;;;;4.00;3.75;;;;;10.29;87.76;98648.47;5037032;28;8853;-59
2022/12/23 02:19:18;;;;;;;;;3.50;3.00;;;;;10.27;87.71;98650.44;5036205;28;8914;-58
2022/12/23 02:21:46;;;;;;;;;2.50;2.50;;;;;10.28;87.93;98646.81;5037160;28;8837;-59
2022/12/23 02:24:15;;;;;;;;;3.00;1.00;;;;;10.28;87.53;98649.47;5037057;28;8844;-58
2022/12/23 02:26:43;;;;;;;;;4.00;4.00;;;;;10.27;87.56;98645.13;5037487;28;8825;-59
2022/12/23 02:29:11;;;;;;;;;3.00;3.00;;;;;10.27;87.34;98660.25;5036971;28;8824;-59
2022/12/23 02:31:38;;;;;;;;;4.00;4.00;;;;;10.28;87.76;98653.94;5037593;28;8832;-59
2022/12/23 02:34:06;;;;;;;;;5.00;4.00;;;;;10.27;87.96;98666.41;5037107;28;8827;-58
2022/12/23 02:36:34;;;;;;;;;2.50;2.50;;;;;10.28;87.69;98664.56;5037086;28;8825;-58
2022/12/23 02:39:02;;;;;;;;;4.00;3.50;;;;;10.27;87.46;98666.41;5036827;28;8812;-58
2022/12/23 02:41:29;;;;;;;;;3.75;3.50;;;;;10.28;87.78;98661.91;5037503;28;8841;-59
2022/12/23 02:43:57;;;;;;;;;3.50;3.50;;;;;10.27;87.45;98674.41;5037050;28;8848;-58
2022/12/23 02:46:25;;;;;;;;;4.00;4.00;;;;;10.28;87.74;98667.22;5037120;28;8817;-58
2022/12/23 02:48:53;;;;;;;;;4.00;3.00;;;;;10.28;87.89;98665.41;5036704;28;8816;-57
2022/12/23 02:51:21;;;;;;;;;4.00;4.00;;;;;10.27;87.58;98666.41;5037385;28;8844;-58
2022/12/23 02:53:48;;;;;;;;;4.00;3.25;;;;;10.28;87.75;98673.41;5036741;28;8857;-59
2022/12/23 02:56:16;;;;;;;;;4.50;4.00;;;;;10.28;87.57;98677.88;5036891;28;8867;-58
2022/12/23 02:58:43;;;;;;;;;5.00;3.50;;;;;10.28;88.24;98683.19;5036415;28;8821;-57
2022/12/23 03:01:11;;;;;;;;;0.75;0.00;;;;;10.28;88.05;98691.19;5036833;28;8828;-58
2022/12/23 03:03:39;;;;;;;;;4.00;3.75;;;;;10.29;87.51;98684.88;5036053;28;8855;-56
2022/12/23 03:06:07;;;;;;;;;4.00;3.00;;;;;10.29;87.96;98690.19;5036145;28;8841;-58
2022/12/23 03:08:35;;;;;;;;;4.75;4.00;;;;;10.28;88.14;98689.38;5036108;28;8808;-57
2022/12/23 03:11:04;;;;;;;;;4.00;4.00;;;;;10.30;88.01;98686.53;5035555;28;8844;-58
2022/12/23 03:13:32;;;;;;;;;5.00;3.50;;;;;10.29;88.02;98691.03;5035790;28;8855;-59
2022/12/23 03:15:59;;;;;;;;;4.00;4.00;;;;;10.30;88.27;98697.19;5036727;28;8864;-57
2022/12/23 03:18:27;;;;;;;;;1.00;0.00;;;;;10.29;87.84;98701.69;5036651;28;8844;-59
2022/12/23 03:20:55;;;;;;;;;1.50;1.00;;;;;10.30;88.05;98695.38;5036661;28;8828;-58
2022/12/23 03:23:22;;;;;;;;;3.50;3.00;;;;;10.31;88.12;98699.69;5036655;28;8824;-58
2022/12/23 03:25:50;;;;;;;;;2.50;2.50;;;;;10.32;88.04;98709.34;5036907;28;8833;-58
2022/12/23 03:28:18;;;;;;;;;5.00;3.75;;;;;10.33;88.02;98710.19;5035952;28;8839;-59
2022/12/23 03:30:45;;;;;;;;;4.50;3.25;;;;;10.33;87.89;98705.69;5036000;28;8844;-57
2022/12/23 03:33:14;;;;;;;;;1.00;1.00;;;;;10.33;88.43;98703.03;5036484;28;8820;-58
2022/12/23 03:35:41;;;;;;;;;7.50;6.25;;;;;10.32;87.57;98712.00;5035280;28;8851;-57
2022/12/23 03:38:09;;;;;;;;;2.50;2.00;;;;;10.33;87.75;98719.00;5035841;28;8865;-57
2022/12/23 03:40:37;;;;;;;;;5.25;4.75;;;;;10.32;87.72;98722.66;5035062;28;8843;-56
2022/12/23 03:43:04;;;;;;;;;6.50;6.50;;;;;10.32;87.67;98721.84;5035348;28;8821;-56
2022/12/23 03:45:32;;;;;;;;;9.50;4.00;;;;;10.30;87.75;98721.97;5036113;28;8841;-58
2022/12/23 03:48:08;;;;;;;;;3.25;3.00;;;;;10.29;88.23;98722.97;5036075;28;9495;-59
2022/12/23 03:50:51;;;;;;;;;3.00;1.00;;;;;10.28;88.04;98736.41;5036125;28;8820;-59
2022/12/23 03:53:19;;;;;;;;;6.50;5.50;;;;;10.27;87.60;98730.28;5034195;28;8862;-59
2022/12/23 03:55:47;;;;;;;;;5.25;5.00;;;;;10.27;87.60;98737.41;5034620;28;8847;-58
2022/12/23 03:58:15;;;;;;;;;8.00;6.50;;;;;10.26;88.04;98738.38;5034283;28;8959;-58
2022/12/23 04:00:43;;;;;;;;;5.75;4.00;;;;;10.25;88.15;98732.22;5034941;28;8839;-57
2022/12/23 04:03:10;;;;;;;;;4.00;4.00;;;;;10.25;87.70;98726.06;5035439;28;8832;-59
2022/12/23 04:05:38;;;;;;;;;5.00;4.00;;;;;10.25;87.97;98736.72;5034897;28;8852;-58
2022/12/23 04:08:06;;;;;;;;;6.00;6.00;;;;;10.24;87.96;98733.22;5035407;28;8816;-59
2022/12/23 04:10:33;;;;;;;;;6.00;5.50;;;;;10.25;87.93;98742.84;5035711;28;8844;-59
2022/12/23 04:13:01;;;;;;;;;4.00;4.00;;;;;10.24;87.70;98738.53;5035679;28;8859;-59
2022/12/23 04:15:30;;;;;;;;;2.00;2.00;;;;;10.23;87.77;98728.88;5035204;28;8843;-59
2022/12/23 04:17:57;;;;;;;;;3.00;3.00;;;;;10.23;88.39;98728.88;5035498;28;8850;-59
2022/12/23 04:20:25;;;;;;;;;6.00;6.00;;;;;10.24;88.04;98724.41;5035582;28;8828;-58
2022/12/23 04:22:52;;;;;;;;;5.00;4.00;;;;;10.24;88.10;98735.88;5035641;28;8906;-58
2022/12/23 04:25:21;;;;;;;;;6.00;4.50;;;;;10.24;87.97;98738.53;5035982;28;9506;-59
2022/12/23 04:27:48;;;;;;;;;6.50;6.50;;;;;10.25;88.42;98732.22;5036148;28;9706;-59
2022/12/23 04:30:17;;;;;;;;;4.00;3.50;;;;;10.25;88.41;98729.56;5035310;28;8817;-59
2022/12/23 04:32:45;;;;;;;;;5.00;5.00;;;;;10.25;88.51;98720.75;5035658;28;8829;-59
2022/12/23 04:35:13;;;;;;;;;4.00;4.00;;;;;10.26;88.03;98736.53;5035526;28;8843;-59
2022/12/23 04:37:41;;;;;;;;;5.00;5.00;;;;;10.25;88.04;98737.53;5035175;28;8832;-58
2022/12/23 04:40:09;;;;;;;;;3.75;3.75;;;;;10.25;88.31;98740.19;5035068;28;8828;-58
2022/12/23 04:42:36;;;;;;;;;3.50;3.50;;;;;10.26;88.02;98743.72;5035433;28;8849;-58
2022/12/23 04:45:04;;;;;;;;;5.50;4.00;;;;;10.25;88.54;98729.56;5038944;28;8856;-57
2022/12/23 04:47:32;;;;;;;;;4.50;4.00;;;;;10.26;87.96;98731.22;5039052;28;8855;-57
2022/12/23 04:50:00;;;;;;;;;3.00;3.00;;;;;10.27;87.91;98740.06;5019098;28;8831;-57
2022/12/23 04:52:27;;;;;;;;;7.00;6.50;;;;;10.27;87.94;98734.75;5018970;28;8827;-56
2022/12/23 04:54:55;;;;;;;;;4.50;4.00;;;;;10.27;88.02;98732.06;5019022;28;8838;-58
2022/12/23 04:57:23;;;;;;;;;4.00;4.00;;;;;10.28;87.94;98733.75;5018772;28;8847;-59
2022/12/23 04:59:52;;;;;;;;;4.00;3.75;;;;;10.28;87.94;98736.41;5037729;28;8821;-58
2022/12/23 05:02:20;;;;;;;;;3.50;3.50;;;;;10.28;88.18;98747.91;5038643;28;8871;-58
2022/12/23 05:04:48;;;;;;;;;5.75;5.50;;;;;10.28;88.51;98747.06;5038545;28;8852;-60
2022/12/23 05:07:15;;;;;;;;;5.50;4.50;;;;;10.28;88.17;98753.22;5038379;28;8837;-58
2022/12/23 05:09:43;;;;;;;;;10.00;7.00;;;;;10.27;88.40;98751.56;5038416;28;8826;-58
2022/12/23 05:12:11;;;;;;;;;5.50;5.50;;;;;10.27;88.40;98753.38;5038926;28;9512;-58
2022/12/23 05:14:38;;;;;;;;;3.00;2.00;;;;;10.28;88.60;98752.38;5038749;28;8824;-59
2022/12/23 05:17:06;;;;;;;;;3.25;3.00;;;;;10.27;88.08;98762.19;5038573;28;8821;-57
2022/12/23 05:19:34;;;;;;;;;3.50;2.50;;;;;10.26;87.95;98755.16;5038149;28;8813;-59
2022/12/23 05:22:02;;;;;;;;;4.00;3.50;;;;;10.25;88.28;98758.00;5038788;28;8817;-57
2022/12/23 05:24:30;;;;;;;;;5.00;5.00;;;;;10.25;88.20;98763.31;5038487;28;8825;-57
2022/12/23 05:26:58;;;;;;;;;8.00;7.25;;;;;10.25;88.28;98763.31;5038655;28;8832;-59
2022/12/23 05:29:27;;;;;;;;;5.75;4.75;;;;;10.25;88.21;98763.31;5037901;28;8829;-57
2022/12/23 05:31:54;;;;;;;;;4.00;3.50;;;;;10.24;87.87;98764.31;5038617;28;8840;-58
2022/12/23 05:34:22;;;;;;;;;3.50;3.25;;;;;10.23;88.25;98766.13;5038061;28;8951;-59
2022/12/23 05:36:50;;;;;;;;;6.25;5.50;;;;;10.23;88.03;98765.31;5038208;28;8858;-56
2022/12/23 05:39:18;;;;;;;;;3.50;3.50;;;;;10.23;88.04;98762.66;5038459;28;8823;-57
2022/12/23 05:41:45;;;;;;;;;4.00;3.75;;;;;10.22;88.72;98763.59;5038245;28;9549;-57
2022/12/23 05:44:13;;;;;;;;;4.00;4.00;;;;;10.22;88.62;98760.94;5038327;28;8829;-57
2022/12/23 05:46:41;;;;;;;;;3.00;3.00;;;;;10.21;88.30;98756.59;5037751;28;8865;-56
2022/12/23 05:49:09;;;;;;;;;3.75;3.75;;;;;10.19;88.07;98748.81;5038096;28;8812;-58
2022/12/23 05:51:37;;;;;;;;;3.75;3.00;;;;;10.18;88.46;98759.59;5037952;28;8906;-57
2022/12/23 05:54:05;;;;;;;;;3.50;3.50;;;;;10.19;88.20;98764.75;5037362;28;8833;-57
2022/12/23 05:56:32;;;;;;;;;3.00;3.00;;;;;10.18;88.63;98763.06;5037812;28;8812;-57
2022/12/23 05:59:00;;;;;;;;;2.50;2.50;;;;;10.18;88.37;98762.25;5037098;28;8845;-56
2022/12/23 06:01:28;;;;;;;;;1.50;1.50;;;;;10.18;88.79;98764.91;5037245;28;8844;-59
2022/12/23 06:03:55;;;;;;;;;6.25;4.50;;;;;10.18;88.54;98759.59;5037566;28;8837;-58
2022/12/23 06:06:23;;;;;;;;;2.00;2.00;;;;;10.17;88.70;98765.88;5036827;28;8857;-58
2022/12/23 06:08:51;;;;;;;;;4.00;3.00;;;;;10.17;88.60;98774.69;5036478;28;8817;-59
2022/12/23 06:11:26;;;;;;;;;3.00;2.00;;;;;10.17;88.65;98785.34;5037021;28;9538;-59
2022/12/23 06:13:53;;;;;;;;;3.00;3.00;;;;;10.16;88.32;98783.66;5037230;28;8819;-58
2022/12/23 06:16:21;;;;;;;;;3.00;3.00;;;;;10.15;88.40;98789.97;5037309;28;8886;-58
2022/12/23 06:18:49;;;;;;;;;2.50;2.50;;;;;10.15;88.90;98795.28;5037305;28;8914;-58
2022/12/23 06:21:16;;;;;;;;;4.50;4.00;;;;;10.14;88.59;98788.31;5037359;28;8844;-59
2022/12/23 06:23:44;;;;;;;;;3.00;3.00;;;;;10.14;88.45;98795.44;5036956;28;8860;-58
2022/12/23 06:26:12;;;;;;;;;6.00;4.00;;;;;10.14;88.38;98804.25;5037027;28;8836;-58
2022/12/23 06:28:40;;;;;;;;;6.00;3.75;;;;;10.14;88.33;98804.25;5036647;28;8825;-58
2022/12/23 06:31:08;;;;;;;;;4.00;3.00;;;;;10.14;88.30;98806.06;5035461;28;8845;-59
2022/12/23 06:33:35;;;;;;;;;7.00;5.50;;;;;10.15;88.57;98815.72;5035661;28;8864;-58
2022/12/23 06:36:03;;;;;;;;;3.75;3.25;;;;;10.14;88.54;98812.25;5035982;28;8886;-58
2022/12/23 06:38:31;;;;;;;;;5.25;3.75;;;;;10.14;88.30;98806.06;5035450;28;9513;-58
2022/12/23 06:40:58;;;;;;;;;3.00;3.00;;;;;10.15;88.80;98802.41;5016317;28;9635;-59
2022/12/23 06:43:26;;;;;;;;;0.00;0.00;;;;;10.13;88.43;98799.94;5015940;28;8834;-58
2022/12/23 06:45:54;;;;;;;;;1.50;1.50;;;;;10.13;88.67;98802.59;5014848;28;8862;-58
2022/12/23 06:48:21;;;;;;;;;2.50;2.50;;;;;10.13;88.91;98807.91;5019287;28;8848;-58
2022/12/23 06:50:49;;;;;;;;;4.00;4.00;;;;;10.12;88.66;98808.91;5036102;28;8844;-57
2022/12/23 06:53:18;;;;;;;;;4.00;4.00;;;;;10.12;89.01;98800.06;5036164;28;8863;-59
2022/12/23 06:55:46;;;;;;;;;5.00;4.50;;;;;10.12;88.71;98811.56;5036102;28;8991;-59
2022/12/23 06:58:13;;;;;;;;;4.00;3.50;;;;;10.12;88.43;98811.56;5036140;28;8844;-58
2022/12/23 07:00:42;;;;;;;;;6.00;6.00;;;;;10.12;88.87;98806.25;5036257;28;8820;-59
2022/12/23 07:03:10;;;;;;;;;7.00;6.50;;;;;10.11;88.64;98814.34;5036470;28;8828;-59
2022/12/23 07:05:38;;;;;;;;;4.50;4.00;;;;;10.10;88.72;98804.69;5035165;28;9038;-59
2022/12/23 07:08:06;;;;;;;;;6.00;6.00;;;;;10.09;88.98;98814.50;5035640;28;8871;-58
2022/12/23 07:10:33;;;;;;;;;3.00;2.00;;;;;10.08;88.81;98807.50;5035947;28;8854;-58
2022/12/23 07:13:02;;;;;;;;;5.00;4.00;;;;;10.09;89.18;98811.84;5036227;28;8848;-59
2022/12/23 07:15:29;;;;;;;;;6.50;4.50;;;;;10.09;88.57;98811.00;5035764;28;8844;-59
2022/12/23 07:17:57;;;;;;;;;9.25;6.25;;;;;10.09;88.88;98814.50;5035591;28;8848;-57
2022/12/23 07:20:25;;;;;;;;;5.00;5.00;;;;;10.10;88.54;98810.03;5034742;28;8825;-59
2022/12/23 07:22:53;;;;;;;;;4.00;3.50;;;;;10.09;88.99;98817.16;5035071;28;8990;-57
2022/12/23 07:25:20;;;;;;;;;7.25;5.75;;;;;10.10;88.86;98818.81;5034914;28;8824;-57
2022/12/23 07:27:48;;;;;;;;;7.50;7.50;;;;;10.10;88.58;98818.00;5035328;28;8883;-59
2022/12/23 07:30:16;;;;;;;;;6.00;4.00;;;;;10.09;88.51;98830.44;5035211;28;8867;-58
2022/12/23 07:32:44;;;;;;;;;8.75;6.25;;;;;10.10;88.95;98837.44;5035459;28;8821;-57
2022/12/23 07:35:12;;;;;;;;;6.25;5.00;;;;;10.10;88.91;98844.59;5034833;28;8833;-60
2022/12/23 07:37:40;;;;;;;;;3.00;3.00;;;;;10.09;88.46;98842.94;5035632;28;9518;-59
2022/12/23 07:40:08;;;;;;;;;8.00;6.50;;;;;10.08;88.51;98844.75;5034305;28;8858;-59
2022/12/23 07:42:35;;;;;;;;;5.00;5.00;;;;;10.07;88.78;98856.38;5033249;28;8844;-58
2022/12/23 07:45:13;;;;;;;;;4.50;3.75;;;;;10.08;88.16;98870.50;5033369;28;8848;-59
2022/12/23 07:47:41;;;;;;;;;6.00;6.00;;;;;10.07;88.95;98879.44;5034433;28;8860;-59
2022/12/23 07:50:08;;;;;;;;;5.50;3.50;;;;;10.05;89.07;98890.25;5034467;28;8851;-59
2022/12/23 07:52:36;;;;;;;;;3.50;3.00;;;;;10.04;88.92;98888.59;5033927;28;8813;-59
2022/12/23 07:55:04;;;;;;;;;8.50;6.75;;;;;10.04;89.19;98893.91;5033278;28;8841;-59
2022/12/23 07:57:36;;;;;;;;;6.25;6.00;;;;;10.03;89.00;98884.22;5033923;28;8994;-58
2022/12/23 08:00:04;;;;;;;;;4.50;4.00;;;;;10.03;89.04;98891.38;5033959;28;8998;-58
2022/12/23 08:02:32;;;;;;;;;0.50;0.00;;;;;10.02;89.29;98887.00;5033558;28;8816;-59
2022/12/23 08:05:01;;;;;;;;;7.00;4.50;;;;;10.01;88.96;98886.16;5033652;28;8851;-58
2022/12/23 08:07:28;;;;;;;;;7.50;6.25;;;;;10.01;88.83;98882.69;5034307;28;8990;-59
2022/12/23 08:09:56;;;;;;;;;6.75;6.75;;;;;10.01;89.09;98886.16;5034026;28;9533;-59
2022/12/23 08:12:24;;;;;;;;;9.50;8.00;;;;;10.01;88.95;98880.84;5034149;28;8820;-59
2022/12/23 08:14:52;;;;;;;;;7.00;7.00;;;;;10.01;88.77;98888.00;5034521;28;8864;-59
2022/12/23 08:17:20;;;;;;;;;8.25;6.00;;;;;10.01;89.38;98885.34;5036266;28;9581;-59
2022/12/23 08:19:48;;;;;;;;;6.25;5.50;;;;;10.00;89.27;98878.31;5038619;28;8841;-59
2022/12/23 08:22:16;;;;;;;;;5.00;5.00;;;;;10.00;88.95;98881.84;5038230;28;8847;-59
2022/12/23 08:24:44;;;;;;;;;8.75;7.50;;;;;10.01;88.86;98864.06;5038284;28;9752;-58
2022/12/23 08:27:12;;;;;;;;;5.50;3.75;;;;;10.02;88.95;98873.72;5038060;28;8853;-59
2022/12/23 08:29:40;;;;;;;;;7.00;5.25;;;;;10.02;88.89;98865.75;5038152;28;8930;-59
2022/12/23 08:32:08;;;;;;;;;8.25;8.00;;;;;10.02;89.08;98871.88;5038574;28;8970;-59
2022/12/23 08:34:35;;;;;;;;;8.00;7.00;;;;;10.04;88.80;98866.44;5038728;28;8828;-58
2022/12/23 08:37:03;;;;;;;;;6.50;5.75;;;;;10.06;88.88;98875.97;5038546;28;8832;-59
2022/12/23 08:39:31;;;;;;;;;7.00;6.25;;;;;10.08;88.61;98878.50;5037321;28;9494;-57
2022/12/23 08:42:00;;;;;;;;;5.50;4.25;;;;;10.09;88.45;98886.31;5037126;28;8848;-59
2022/12/23 08:44:28;;;;;;;;;5.00;5.00;;;;;10.09;88.77;98875.66;5036863;28;8987;-58
2022/12/23 08:46:56;;;;;;;;;6.50;6.25;;;;;10.10;88.33;98880.00;5037096;28;8899;-58
2022/12/23 08:49:24;;;;;;;;;4.50;3.25;;;;;10.10;88.48;98874.69;5037327;28;8828;-59
2022/12/23 08:51:52;;;;;;;;;6.50;6.25;;;;;10.12;88.83;98867.41;5037550;28;8918;-58
2022/12/23 08:54:21;;;;;;;;;6.50;6.50;;;;;10.15;88.93;98874.25;5037532;28;8844;-56
2022/12/23 08:56:48;;;;;;;;;3.75;3.00;;;;;10.18;88.30;98874.78;5037638;28;8984;-56
2022/12/23 08:59:16;;;;;;;;;9.25;7.50;;;;;10.21;88.25;98874.53;5037232;28;8832;-59
2022/12/23 09:01:46;;;;;;;;;9.00;9.00;;;;;10.23;88.25;98874.38;5037143;28;9000;-58
2022/12/23 09:04:16;;;;;;;;;4.50;3.50;;;;;10.26;88.22;98866.09;5036556;28;8906;-59
2022/12/23 09:06:44;;;;;;;;;6.75;5.00;;;;;10.28;88.31;98859.66;5036965;28;8832;-59
2022/12/23 09:09:12;;;;;;;;;7.00;6.00;;;;;10.31;88.27;98871.81;5036506;28;8820;-59
2022/12/23 09:11:39;;;;;;;;;8.50;8.00;;;;;10.34;88.10;98868.84;5036082;28;9003;-57
2022/12/23 09:14:09;;;;;;;;;7.00;7.00;;;;;10.36;87.86;98882.84;5037168;28;8983;-59
2022/12/23 09:16:36;;;;;;;;;1.00;1.00;;;;;10.37;88.12;98879.19;5037108;28;8812;-59
2022/12/23 09:19:04;;;;;;;;;7.00;6.75;;;;;10.38;88.08;98880.88;5037364;28;9797;-57
2022/12/23 09:21:32;;;;;;;;;6.75;6.25;;;;;10.40;88.04;98882.41;5036053;28;8833;-58
2022/12/23 09:24:00;;;;;;;;;2.50;2.50;;;;;10.41;87.70;98888.56;5035139;28;8848;-59
2022/12/23 09:26:28;;;;;;;;;7.00;6.00;;;;;10.42;87.55;98882.25;5034199;28;8832;-57
2022/12/23 09:28:56;;;;;;;;;6.50;6.50;;;;;10.42;88.17;98871.63;5034805;28;8848;-59
2022/12/23 09:31:24;;;;;;;;;4.00;4.00;;;;;10.42;88.07;98861.81;5036207;28;8979;-56
2022/12/23 09:34:00;;;;;;;;;1.00;1.00;;;;;10.42;88.09;98853.84;5035645;28;8851;-59
2022/12/23 09:36:28;;;;;;;;;9.50;5.50;;;;;10.40;88.25;98858.44;5035611;28;8813;-56
2022/12/23 09:38:56;;;;;;;;;8.50;7.00;;;;;10.40;88.07;98849.66;5035531;28;8833;-58
2022/12/23 09:41:25;;;;;;;;;6.75;6.50;;;;;10.40;87.74;98860.28;5034256;28;8833;-58
2022/12/23 09:43:52;;;;;;;;;4.25;4.00;;;;;10.39;88.13;98862.09;5033817;28;8817;-57
2022/12/23 09:46:20;;;;;;;;;6.75;6.50;;;;;10.41;87.51;98860.13;5033885;28;8836;-58
2022/12/23 09:48:48;;;;;;;;;4.00;4.00;;;;;10.42;87.72;98856.50;5034280;28;8844;-58
2022/12/23 09:51:16;;;;;;;;;6.50;6.50;;;;;10.44;88.19;98869.63;5033683;28;8862;-57
2022/12/23 09:53:45;;;;;;;;;3.50;3.50;;;;;10.45;87.60;98866.84;5034420;28;8890;-58
2022/12/23 09:56:12;;;;;;;;;7.00;6.00;;;;;10.47;87.48;98859.53;5035473;28;8852;-58
2022/12/23 09:58:40;;;;;;;;;6.00;6.00;;;;;10.50;87.89;98853.94;5035099;28;8840;-59
2022/12/23 10:01:08;;;;;;;;;5.00;3.25;;;;;10.52;87.83;98846.63;5035580;28;8871;-59
2022/12/23 10:03:36;;;;;;;;;8.00;6.50;;;;;10.53;88.01;98845.66;5035548;28;8848;-57
2022/12/23 10:06:05;;;;;;;;;6.50;6.50;;;;;10.55;88.09;98830.34;5035018;28;8833;-59
2022/12/23 10:08:33;;;;;;;;;6.00;5.50;;;;;10.55;87.49;98825.03;5034466;28;8840;-57
2022/12/23 10:11:01;;;;;;;;;5.00;4.00;;;;;10.55;87.49;98817.03;5035136;28;8828;-57
2022/12/23 10:13:29;;;;;;;;;7.00;6.00;;;;;10.57;87.32;98828.41;5035023;28;8836;-59
2022/12/23 10:15:58;;;;;;;;;6.50;6.25;;;;;10.57;87.71;98831.06;5035014;28;8828;-59
2022/12/23 10:18:26;;;;;;;;;8.00;6.50;;;;;10.59;87.54;98829.09;5034805;28;8956;-57
2022/12/23 10:20:54;;;;;;;;;3.50;3.50;;;;;10.60;87.61;98830.75;5034729;28;8917;-58
2022/12/23 10:23:22;;;;;;;;;7.00;6.00;;;;;10.61;87.88;98824.44;5035589;28;8914;-59
2022/12/23 10:25:50;;;;;;;;;6.00;6.00;;;;;10.62;87.39;98825.28;5035246;28;8992;-57
2022/12/23 10:28:18;;;;;;;;;3.00;3.00;;;;;10.64;87.13;98828.63;5035466;28;8853;-58
2022/12/23 10:30:47;;;;;;;;;7.25;6.75;;;;;10.64;87.17;98825.97;5035535;28;8902;-58
2022/12/23 10:33:35;;;;;;;;;6.00;5.00;;;;;10.64;87.48;98828.63;5035099;28;8841;-57
2022/12/23 10:36:03;;;;;;;;;5.00;3.25;;;;;10.61;87.05;98819.13;5034720;28;8955;-59
2022/12/23 10:38:31;;;;;;;;;6.00;5.50;;;;;10.61;87.39;98815.63;5035196;28;8833;-58
2022/12/23 10:40:59;;;;;;;;;3.00;3.00;;;;;10.58;87.32;98803.47;5034769;28;8836;-58
2022/12/23 10:43:36;;;;;;;;;4.50;4.50;;;;;10.54;87.50;98794.09;5035120;28;8856;-59
2022/12/23 10:46:04;;;;;;;;;5.00;3.75;;;;;10.51;87.62;98781.09;5034887;28;8975;-58
2022/12/23 10:48:32;;;;;;;;;0.50;0.50;;;;;10.52;87.22;98780.09;5034791;28;8867;-57
2022/12/23 10:51:00;;;;;;;;;3.75;3.00;;;;;10.52;87.41;98781.91;5034530;28;8816;-59
2022/12/23 10:53:28;;;;;;;;;2.00;1.50;;;;;10.51;87.66;98773.09;5035441;28;8916;-57
2022/12/23 10:55:56;;;;;;;;;3.00;1.00;;;;;10.53;87.93;98765.78;5035200;28;8832;-58
2022/12/23 10:58:24;;;;;;;;;6.75;5.00;;;;;10.54;87.49;98763.97;5035349;28;8836;-59
2022/12/23 11:00:52;;;;;;;;;4.00;3.00;;;;;10.57;87.66;98753.88;5035265;28;8921;-58
2022/12/23 11:03:20;;;;;;;;;6.00;5.00;;;;;10.59;87.47;98749.22;5035207;28;8849;-59
2022/12/23 11:05:48;;;;;;;;;6.50;5.25;;;;;10.61;87.53;98747.25;5033940;28;8848;-58
2022/12/23 11:08:16;;;;;;;;;4.50;4.00;;;;;10.65;87.54;98751.28;5034712;28;8876;-59
2022/12/23 11:10:44;;;;;;;;;6.00;4.00;;;;;10.71;87.34;98740.00;5034325;28;8833;-58
2022/12/23 11:13:13;;;;;;;;;4.00;4.00;;;;;10.79;87.20;98742.78;5033230;28;8852;-59
2022/12/23 11:15:41;;;;;;;;;7.25;7.25;;;;;10.85;86.99;98726.16;5033476;28;8967;-59
2022/12/23 11:18:09;;;;;;;;;6.00;6.00;;;;;10.90;87.07;98726.53;5032483;28;8926;-59
2022/12/23 11:20:36;;;;;;;;;6.50;6.00;;;;;10.94;86.86;98722.56;5033820;28;8845;-57
2022/12/23 11:23:04;;;;;;;;;7.00;6.25;;;;;10.97;86.88;98722.28;5033668;28;8861;-57
2022/12/23 11:25:32;;;;;;;;;8.00;5.00;;;;;10.97;86.75;98735.59;5033769;28;8851;-59
2022/12/23 11:28:01;;;;;;;;;5.00;4.00;;;;;10.95;86.72;98720.75;5033365;28;8848;-59
2022/12/23 11:30:28;;;;;;;;;1.00;1.00;;;;;10.92;86.96;98716.56;5033396;28;8837;-59
2022/12/23 11:32:56;;;;;;;;;4.00;4.00;;;;;10.90;87.05;98715.88;5032881;28;8862;-58
2022/12/23 11:35:24;;;;;;;;;3.50;3.50;;;;;10.88;86.82;98712.56;5032749;28;9509;-59
2022/12/23 11:37:52;;;;;;;;;3.50;3.50;;;;;10.86;87.32;98700.38;5032539;28;9820;-59
2022/12/23 11:40:20;;;;;;;;;3.00;2.50;;;;;10.85;86.98;98688.06;5031619;28;8821;-57
2022/12/23 11:42:48;;;;;;;;;2.50;1.00;;;;;10.85;87.30;98680.88;5031722;28;8864;-58
2022/12/23 11:45:21;;;;;;;;;3.00;3.00;;;;;10.87;87.15;98694.91;5031508;28;8852;-59
2022/12/23 11:47:49;;;;;;;;;4.00;3.00;;;;;10.91;87.45;98703.44;5032291;28;8857;-59
2022/12/23 11:50:17;;;;;;;;;6.75;6.25;;;;;10.95;87.15;98684.31;5032266;28;8856;-59
2022/12/23 11:52:46;;;;;;;;;3.75;3.00;;;;;10.96;87.25;98685.97;5031243;28;8868;-59
2022/12/23 11:55:14;;;;;;;;;3.50;1.50;;;;;10.96;87.01;98685.97;5031980;28;9518;-58
2022/12/23 11:57:42;;;;;;;;;3.00;2.50;;;;;10.96;86.68;98680.66;5033074;28;8918;-59
2022/12/23 12:00:11;;;;;;;;;3.50;3.00;;;;;10.95;86.48;98673.66;5033566;28;8837;-59
2022/12/23 12:02:39;;;;;;;;;2.00;2.00;;;;;10.96;86.77;98679.81;5033898;28;8852;-57
2022/12/23 12:05:07;;;;;;;;;2.50;2.50;;;;;10.94;86.92;98682.63;5033671;28;8840;-58
2022/12/23 12:07:35;;;;;;;;;6.00;4.00;;;;;10.91;86.80;98668.81;5033395;28;8856;-59
2022/12/23 12:10:03;;;;;;;;;3.75;3.00;;;;;10.88;87.21;98672.59;5033260;28;8930;-59
2022/12/23 12:12:31;;;;;;;;;6.25;4.50;;;;;10.85;86.89;98661.44;5032611;28;8836;-58